createdAt,value
2017-09-02T00:00:24.006Z,2.80
2017-09-02T00:01:21.312Z,2.60
2017-09-02T00:02:18.573Z,3.60
2017-09-02T00:03:15.869Z,3.00
2017-09-02T00:04:13.181Z,3.40
2017-09-02T00:05:10.449Z,3.60
2017-09-02T00:06:07.715Z,3.20
2017-09-02T00:07:05.018Z,3.50
2017-09-02T00:08:02.314Z,3.30
2017-09-02T00:08:59.601Z,3.40
2017-09-02T00:09:56.981Z,3.50
2017-09-02T00:10:54.301Z,3.30
2017-09-02T00:11:51.606Z,3.40
2017-09-02T00:12:48.893Z,3.10
2017-09-02T00:13:46.181Z,3.70
2017-09-02T00:14:43.505Z,3.40
2017-09-02T00:15:40.800Z,4.80
2017-09-02T00:16:38.127Z,3.00
2017-09-02T00:17:35.393Z,3.10
2017-09-02T00:18:32.718Z,3.90
2017-09-02T00:19:29.994Z,3.90
2017-09-02T00:20:27.311Z,4.70
2017-09-02T00:21:24.581Z,3.40
2017-09-02T00:22:21.882Z,6.50
2017-09-02T00:23:19.210Z,3.60
2017-09-02T00:24:16.491Z,5.60
2017-09-02T00:25:13.777Z,6.30
2017-09-02T00:26:11.074Z,3.80
2017-09-02T00:27:08.350Z,13.10
2017-09-02T00:28:05.669Z,3.40
2017-09-02T00:29:02.972Z,3.20
2017-09-02T00:30:00.308Z,4.10
2017-09-02T00:30:57.581Z,3.20
2017-09-02T00:31:54.884Z,3.40
2017-09-02T00:32:52.281Z,3.60
2017-09-02T00:33:49.577Z,3.80
2017-09-02T00:34:46.841Z,3.30
2017-09-02T00:35:44.170Z,4.70
2017-09-02T00:36:41.438Z,3.40
2017-09-02T00:37:38.710Z,3.70
2017-09-02T00:38:35.990Z,3.70
2017-09-02T00:39:33.285Z,3.50
2017-09-02T00:40:30.593Z,3.70
2017-09-02T00:41:27.916Z,4.10
2017-09-02T00:42:25.186Z,3.30
2017-09-02T00:43:24.542Z,3.30
2017-09-02T00:44:21.853Z,3.60
2017-09-02T00:45:19.205Z,3.10
2017-09-02T00:46:16.458Z,3.60
2017-09-02T00:47:13.747Z,4.10
2017-09-02T00:48:11.030Z,3.70
2017-09-02T00:49:08.322Z,5.00
2017-09-02T00:50:05.584Z,4.50
2017-09-02T00:51:02.893Z,3.30
2017-09-02T00:52:00.158Z,3.90
2017-09-02T00:52:57.432Z,3.10
2017-09-02T00:53:54.729Z,3.30
2017-09-02T00:54:52.019Z,3.40
2017-09-02T00:55:49.306Z,3.30
2017-09-02T00:56:46.594Z,3.20
2017-09-02T00:57:43.835Z,3.10
2017-09-02T00:58:41.098Z,3.10
2017-09-02T00:59:38.348Z,3.30
2017-09-02T01:00:35.616Z,3.00
2017-09-02T01:01:32.907Z,3.20
2017-09-02T01:02:30.183Z,3.40
2017-09-02T01:03:27.433Z,2.90
2017-09-02T01:04:24.697Z,3.10
2017-09-02T01:05:21.960Z,2.40
2017-09-02T01:06:19.269Z,4.30
2017-09-02T01:07:16.552Z,4.10
2017-09-02T01:08:13.825Z,3.20
2017-09-02T01:09:11.071Z,6.30
2017-09-02T01:10:08.351Z,4.10
2017-09-02T01:11:05.605Z,3.30
2017-09-02T01:12:02.898Z,3.10
2017-09-02T01:13:00.137Z,3.50
2017-09-02T01:13:57.419Z,3.50
2017-09-02T01:14:54.677Z,3.70
2017-09-02T01:15:51.944Z,3.60
2017-09-02T01:16:49.195Z,3.60
2017-09-02T01:17:46.460Z,3.80
2017-09-02T01:18:43.726Z,3.30
2017-09-02T01:19:40.999Z,3.40
2017-09-02T01:20:38.248Z,3.90
2017-09-02T01:21:35.544Z,3.20
2017-09-02T01:22:32.789Z,3.70
2017-09-02T01:23:30.049Z,2.70
2017-09-02T01:24:27.462Z,4.10
2017-09-02T01:25:24.737Z,2.80
2017-09-02T01:26:22.029Z,2.80
2017-09-02T01:27:19.357Z,3.40
2017-09-02T01:28:16.620Z,3.10
2017-09-02T01:29:13.890Z,3.20
2017-09-02T01:30:11.158Z,3.30
2017-09-02T01:31:12.983Z,3.30
2017-09-02T01:32:10.253Z,3.40
2017-09-02T01:33:07.539Z,3.20
2017-09-02T01:34:04.787Z,3.00
2017-09-02T01:35:02.057Z,3.50
2017-09-02T01:35:59.315Z,3.70
2017-09-02T01:36:56.625Z,3.40
2017-09-02T01:37:53.893Z,5.70
2017-09-02T01:38:51.153Z,7.50
2017-09-02T01:39:48.398Z,5.40
2017-09-02T01:40:45.678Z,4.30
2017-09-02T01:41:42.946Z,3.30
2017-09-02T01:42:40.238Z,4.00
2017-09-02T01:43:38.056Z,4.20
2017-09-02T01:44:35.336Z,3.90
2017-09-02T01:45:32.583Z,4.10
2017-09-02T01:46:29.871Z,4.60
2017-09-02T01:47:27.153Z,4.90
2017-09-02T01:48:24.409Z,4.40
2017-09-02T01:49:21.639Z,3.80
2017-09-02T01:50:18.919Z,9.60
2017-09-02T01:51:16.180Z,3.40
2017-09-02T01:52:13.477Z,3.60
2017-09-02T01:53:10.734Z,3.90
2017-09-02T01:54:08.008Z,4.70
2017-09-02T01:55:05.240Z,3.90
2017-09-02T01:56:04.561Z,4.20
2017-09-02T01:57:01.831Z,3.40
2017-09-02T01:57:59.125Z,4.20
2017-09-02T01:58:56.377Z,3.70
2017-09-02T01:59:53.665Z,3.00
2017-09-02T02:00:50.906Z,3.30
2017-09-02T02:01:48.191Z,3.10
2017-09-02T02:02:45.469Z,3.90
2017-09-02T02:03:42.755Z,2.90
2017-09-02T02:04:40.004Z,2.60
2017-09-02T02:05:37.265Z,3.60
2017-09-02T02:06:34.518Z,3.80
2017-09-02T02:07:31.817Z,3.10
2017-09-02T02:08:29.069Z,4.30
2017-09-02T02:09:26.357Z,6.40
2017-09-02T02:10:25.665Z,3.80
2017-09-02T02:11:22.925Z,3.10
2017-09-02T02:12:20.182Z,14.90
2017-09-02T02:13:17.465Z,3.50
2017-09-02T02:14:14.743Z,3.60
2017-09-02T02:15:11.996Z,3.90
2017-09-02T02:16:09.277Z,3.80
2017-09-02T02:17:06.540Z,4.20
2017-09-02T02:18:03.850Z,3.90
2017-09-02T02:19:01.102Z,3.70
2017-09-02T02:19:58.354Z,3.50
2017-09-02T02:20:55.587Z,3.70
2017-09-02T02:21:52.854Z,4.50
2017-09-02T02:22:50.127Z,3.20
2017-09-02T02:23:47.417Z,3.40
2017-09-02T02:24:44.655Z,4.20
2017-09-02T02:25:41.925Z,3.60
2017-09-02T02:26:39.249Z,3.50
2017-09-02T02:27:36.533Z,3.50
2017-09-02T02:28:33.791Z,3.70
2017-09-02T02:29:31.069Z,5.90
2017-09-02T02:30:28.322Z,3.50
2017-09-02T02:31:25.574Z,3.50
2017-09-02T02:32:22.830Z,4.50
2017-09-02T02:33:20.137Z,3.60
2017-09-02T02:34:17.379Z,4.50
2017-09-02T02:35:14.650Z,6.30
2017-09-02T02:36:11.913Z,3.70
2017-09-02T02:37:09.197Z,4.30
2017-09-02T02:38:06.457Z,3.10
2017-09-02T02:39:03.757Z,3.90
2017-09-02T02:40:01.043Z,4.10
2017-09-02T02:40:58.361Z,3.30
2017-09-02T02:41:55.637Z,2.90
2017-09-02T02:42:52.935Z,3.80
2017-09-02T02:43:50.214Z,6.30
2017-09-02T02:44:47.474Z,3.40
2017-09-02T02:45:44.720Z,4.40
2017-09-02T02:46:41.999Z,3.40
2017-09-02T02:47:41.346Z,3.70
2017-09-02T02:48:38.653Z,4.00
2017-09-02T02:49:35.907Z,5.30
2017-09-02T02:50:33.178Z,4.10
2017-09-02T02:51:30.426Z,3.70
2017-09-02T02:52:27.706Z,3.90
2017-09-02T02:53:24.962Z,3.90
2017-09-02T02:54:22.282Z,5.60
2017-09-02T02:55:19.528Z,3.80
2017-09-02T02:56:16.805Z,4.50
2017-09-02T02:57:14.066Z,4.30
2017-09-02T02:58:11.338Z,5.20
2017-09-02T02:59:08.630Z,5.30
2017-09-02T03:00:05.897Z,4.10
2017-09-02T03:01:03.165Z,4.20
2017-09-02T03:02:00.418Z,4.40
2017-09-02T03:02:57.669Z,12.00
2017-09-02T03:03:54.972Z,4.20
2017-09-02T03:04:52.263Z,4.40
2017-09-02T03:05:49.530Z,3.90
2017-09-02T03:06:46.777Z,3.70
2017-09-02T03:07:44.045Z,6.60
2017-09-02T03:08:41.281Z,4.00
2017-09-02T03:09:38.562Z,4.80
2017-09-02T03:10:35.830Z,3.70
2017-09-02T03:11:33.110Z,3.70
2017-09-02T03:12:30.419Z,7.10
2017-09-02T03:13:27.698Z,9.90
2017-09-02T03:14:24.970Z,4.00
2017-09-02T03:15:26.212Z,3.50
2017-09-02T03:16:23.473Z,4.10
2017-09-02T03:17:20.708Z,3.80
2017-09-02T03:18:17.986Z,3.80
2017-09-02T03:19:15.278Z,3.80
2017-09-02T03:20:12.558Z,4.40
2017-09-02T03:21:09.833Z,4.10
2017-09-02T03:22:07.105Z,5.70
2017-09-02T03:23:04.383Z,5.70
2017-09-02T03:24:01.654Z,3.60
2017-09-02T03:24:58.933Z,4.10
2017-09-02T03:25:56.210Z,3.90
2017-09-02T03:26:53.451Z,5.30
2017-09-02T03:27:50.766Z,4.90
2017-09-02T03:28:49.020Z,5.60
2017-09-02T03:29:46.309Z,5.10
2017-09-02T03:30:43.567Z,5.50
2017-09-02T03:31:41.036Z,6.40
2017-09-02T03:32:38.469Z,4.90
2017-09-02T03:33:35.750Z,6.00
2017-09-02T03:34:33.022Z,5.10
2017-09-02T03:35:30.335Z,4.40
2017-09-02T03:36:27.598Z,7.60
2017-09-02T03:37:24.898Z,4.60
2017-09-02T03:38:22.212Z,6.10
2017-09-02T03:39:19.502Z,7.90
2017-09-02T03:40:16.806Z,6.30
2017-09-02T03:41:14.093Z,8.10
2017-09-02T03:42:11.365Z,10.10
2017-09-02T03:43:08.665Z,7.50
2017-09-02T03:44:05.935Z,8.80
2017-09-02T03:45:03.225Z,8.00
2017-09-02T03:46:00.500Z,9.00
2017-09-02T03:46:57.785Z,7.80
2017-09-02T03:47:55.042Z,6.30
2017-09-02T03:48:52.325Z,6.00
2017-09-02T03:49:49.565Z,8.70
2017-09-02T03:50:46.873Z,7.20
2017-09-02T03:51:44.152Z,6.60
2017-09-02T03:52:41.417Z,8.50
2017-09-02T03:53:38.673Z,6.70
2017-09-02T03:54:35.958Z,8.50
2017-09-02T03:55:33.225Z,7.60
2017-09-02T03:56:30.501Z,5.70
2017-09-02T03:57:27.720Z,7.80
2017-09-02T03:58:25.004Z,8.80
2017-09-02T03:59:22.250Z,5.90
2017-09-02T04:00:19.537Z,6.70
2017-09-02T04:01:16.815Z,9.90
2017-09-02T04:02:14.108Z,8.10
2017-09-02T04:03:11.365Z,13.00
2017-09-02T04:04:08.649Z,7.90
2017-09-02T04:05:05.894Z,6.50
2017-09-02T04:06:03.174Z,7.20
2017-09-02T04:07:00.433Z,7.10
2017-09-02T04:07:57.706Z,8.40
2017-09-02T04:08:54.955Z,6.20
2017-09-02T04:09:52.241Z,6.50
2017-09-02T04:10:49.505Z,5.90
2017-09-02T04:11:46.779Z,6.10
2017-09-02T04:12:44.054Z,4.70
2017-09-02T04:13:41.334Z,5.20
2017-09-02T04:14:38.626Z,4.70
2017-09-02T04:15:35.944Z,4.00
2017-09-02T04:16:33.215Z,4.50
2017-09-02T04:17:30.557Z,3.40
2017-09-02T04:18:27.831Z,5.00
2017-09-02T04:19:25.119Z,4.50
2017-09-02T04:20:22.366Z,5.60
2017-09-02T04:21:19.641Z,5.80
2017-09-02T04:22:16.875Z,5.40
2017-09-02T04:23:14.169Z,5.00
2017-09-02T04:24:11.408Z,5.60
2017-09-02T04:25:08.690Z,8.80
2017-09-02T04:26:06.043Z,7.10
2017-09-02T04:27:03.391Z,6.10
2017-09-02T04:28:00.713Z,6.80
2017-09-02T04:28:58.022Z,6.60
2017-09-02T04:29:55.328Z,7.90
2017-09-02T04:30:52.600Z,7.80
2017-09-02T04:31:49.870Z,7.80
2017-09-02T04:32:47.166Z,8.10
2017-09-02T04:33:44.460Z,6.10
2017-09-02T04:34:41.741Z,6.30
2017-09-02T04:35:39.001Z,6.20
2017-09-02T04:36:36.287Z,5.50
2017-09-02T04:37:33.529Z,6.10
2017-09-02T04:38:30.821Z,5.30
2017-09-02T04:39:28.085Z,5.80
2017-09-02T04:40:27.413Z,8.40
2017-09-02T04:41:24.676Z,6.30
2017-09-02T04:42:21.970Z,5.80
2017-09-02T04:43:19.229Z,4.70
2017-09-02T04:44:16.514Z,4.50
2017-09-02T04:45:13.774Z,5.90
2017-09-02T04:46:14.054Z,8.30
2017-09-02T04:47:11.344Z,7.50
2017-09-02T04:48:08.613Z,5.10
2017-09-02T04:49:05.919Z,6.40
2017-09-02T04:50:03.226Z,6.40
2017-09-02T04:51:00.503Z,6.00
2017-09-02T04:51:57.773Z,7.10
2017-09-02T04:52:55.066Z,5.90
2017-09-02T04:53:52.340Z,7.30
2017-09-02T04:54:49.943Z,4.90
2017-09-02T04:55:47.193Z,5.30
2017-09-02T04:56:44.505Z,6.10
2017-09-02T04:57:41.761Z,6.40
2017-09-02T04:58:39.046Z,6.90
2017-09-02T04:59:36.298Z,5.80
2017-09-02T05:00:33.573Z,7.90
2017-09-02T05:01:30.838Z,6.70
2017-09-02T05:02:28.145Z,16.50
2017-09-02T05:03:25.390Z,9.00
2017-09-02T05:04:22.662Z,6.20
2017-09-02T05:05:19.925Z,6.10
2017-09-02T05:06:17.173Z,9.50
2017-09-02T05:07:14.439Z,5.70
2017-09-02T05:08:11.737Z,7.60
2017-09-02T05:09:09.058Z,6.30
2017-09-02T05:10:06.350Z,15.90
2017-09-02T05:11:03.605Z,9.90
2017-09-02T05:12:00.908Z,9.00
2017-09-02T05:12:58.189Z,7.30
2017-09-02T05:13:55.515Z,10.30
2017-09-02T05:14:52.781Z,10.40
2017-09-02T05:15:50.051Z,11.20
2017-09-02T05:16:47.317Z,10.60
2017-09-02T05:17:44.609Z,11.00
2017-09-02T05:18:41.868Z,9.20
2017-09-02T05:19:39.146Z,8.80
2017-09-02T05:20:36.431Z,10.00
2017-09-02T05:21:33.708Z,9.30
2017-09-02T05:22:30.974Z,8.70
2017-09-02T05:23:28.249Z,6.80
2017-09-02T05:24:25.512Z,10.20
2017-09-02T05:25:22.805Z,11.40
2017-09-02T05:26:20.077Z,6.20
2017-09-02T05:27:17.450Z,8.00
2017-09-02T05:28:14.738Z,7.40
2017-09-02T05:29:12.029Z,12.50
2017-09-02T05:30:09.269Z,7.60
2017-09-02T05:31:06.547Z,9.40
2017-09-02T05:32:03.818Z,7.30
2017-09-02T05:33:01.122Z,7.10
2017-09-02T05:33:58.401Z,15.40
2017-09-02T05:34:55.670Z,6.70
2017-09-02T05:35:52.984Z,8.10
2017-09-02T05:36:50.289Z,7.10
2017-09-02T05:37:47.554Z,7.40
2017-09-02T05:38:44.834Z,6.20
2017-09-02T05:39:42.089Z,8.50
2017-09-02T05:40:39.416Z,6.60
2017-09-02T05:41:36.659Z,6.80
2017-09-02T05:42:33.945Z,8.10
2017-09-02T05:43:31.240Z,6.70
2017-09-02T05:44:28.582Z,5.30
2017-09-02T05:45:25.845Z,5.60
2017-09-02T05:46:23.121Z,5.50
2017-09-02T05:47:20.417Z,8.80
2017-09-02T05:48:17.745Z,5.90
2017-09-02T05:49:14.998Z,8.60
2017-09-02T05:50:12.296Z,7.30
2017-09-02T05:51:09.550Z,5.40
2017-09-02T05:52:06.845Z,8.10
2017-09-02T05:53:04.122Z,7.10
2017-09-02T05:54:01.410Z,8.00
2017-09-02T05:54:58.685Z,9.50
2017-09-02T05:55:56.024Z,7.00
2017-09-02T05:56:53.346Z,6.60
2017-09-02T05:57:50.653Z,6.80
2017-09-02T05:58:47.937Z,6.30
2017-09-02T05:59:45.213Z,6.30
2017-09-02T06:00:42.490Z,6.60
2017-09-02T06:01:39.780Z,7.00
2017-09-02T06:02:37.047Z,7.30
2017-09-02T06:03:34.374Z,8.30
2017-09-02T06:04:31.630Z,8.60
2017-09-02T06:05:28.958Z,7.80
2017-09-02T06:06:26.258Z,10.40
2017-09-02T06:07:23.554Z,9.40
2017-09-02T06:08:20.852Z,8.50
2017-09-02T06:09:18.132Z,11.80
2017-09-02T06:10:15.394Z,12.40
2017-09-02T06:11:12.689Z,10.80
2017-09-02T06:12:09.946Z,9.80
2017-09-02T06:13:07.230Z,10.20
2017-09-02T06:14:04.530Z,10.70
2017-09-02T06:15:01.821Z,9.00
2017-09-02T06:15:59.080Z,8.70
2017-09-02T06:16:56.422Z,8.20
2017-09-02T06:17:53.688Z,8.00
2017-09-02T06:18:51.055Z,9.40
2017-09-02T06:19:48.321Z,8.70
2017-09-02T06:20:45.601Z,9.60
2017-09-02T06:21:42.873Z,7.90
2017-09-02T06:22:40.162Z,7.60
2017-09-02T06:23:37.422Z,8.70
2017-09-02T06:24:34.698Z,11.60
2017-09-02T06:25:31.980Z,8.40
2017-09-02T06:26:29.279Z,10.50
2017-09-02T06:27:26.585Z,10.20
2017-09-02T06:28:23.894Z,12.00
2017-09-02T06:29:21.340Z,12.00
2017-09-02T06:30:18.627Z,12.30
2017-09-02T06:31:15.873Z,12.40
2017-09-02T06:32:13.169Z,11.00
2017-09-02T06:33:10.414Z,11.90
2017-09-02T06:34:07.730Z,12.00
2017-09-02T06:35:04.995Z,11.70
2017-09-02T06:36:02.280Z,15.90
2017-09-02T06:36:59.554Z,11.70
2017-09-02T06:37:56.841Z,11.60
2017-09-02T06:38:54.115Z,16.20
2017-09-02T06:39:51.418Z,14.20
2017-09-02T06:40:48.701Z,11.20
2017-09-02T06:41:45.974Z,14.80
2017-09-02T06:42:43.235Z,17.20
2017-09-02T06:43:40.529Z,12.60
2017-09-02T06:44:37.813Z,10.80
2017-09-02T06:45:35.105Z,15.30
2017-09-02T06:46:32.372Z,14.70
2017-09-02T06:47:29.718Z,13.60
2017-09-02T06:48:26.971Z,13.80
2017-09-02T06:49:24.285Z,14.80
2017-09-02T06:50:21.546Z,17.60
2017-09-02T06:51:18.821Z,14.90
2017-09-02T06:52:16.090Z,16.00
2017-09-02T06:53:13.369Z,15.80
2017-09-02T06:54:10.614Z,20.20
2017-09-02T06:55:07.952Z,21.20
2017-09-02T06:56:05.229Z,20.80
2017-09-02T06:57:02.536Z,23.10
2017-09-02T06:57:59.819Z,25.30
2017-09-02T06:58:57.097Z,22.70
2017-09-02T06:59:54.377Z,19.80
2017-09-02T07:00:51.663Z,21.60
2017-09-02T07:01:48.919Z,20.90
2017-09-02T07:02:46.193Z,22.60
2017-09-02T07:03:43.439Z,27.90
2017-09-02T07:04:40.714Z,28.90
2017-09-02T07:05:37.996Z,31.00
2017-09-02T07:06:35.299Z,28.50
2017-09-02T07:07:32.590Z,29.40
2017-09-02T07:08:29.884Z,36.70
2017-09-02T07:09:27.150Z,32.90
2017-09-02T07:10:24.471Z,31.60
2017-09-02T07:11:21.748Z,30.20
2017-09-02T07:12:19.022Z,31.80
2017-09-02T07:13:16.283Z,31.10
2017-09-02T07:14:13.569Z,29.20
2017-09-02T07:15:10.830Z,29.50
2017-09-02T07:16:08.113Z,35.20
2017-09-02T07:17:05.369Z,31.50
2017-09-02T07:18:02.666Z,34.20
2017-09-02T07:18:59.980Z,33.70
2017-09-02T07:19:57.298Z,36.70
2017-09-02T07:20:54.571Z,29.70
2017-09-02T07:21:51.882Z,37.60
2017-09-02T07:22:49.145Z,34.30
2017-09-02T07:23:46.434Z,33.60
2017-09-02T07:24:43.719Z,36.20
2017-09-02T07:25:41.077Z,36.90
2017-09-02T07:26:38.365Z,46.80
2017-09-02T07:27:35.785Z,41.60
2017-09-02T07:28:33.130Z,49.50
2017-09-02T07:29:30.442Z,42.10
2017-09-02T07:30:27.743Z,46.50
2017-09-02T07:31:25.042Z,44.60
2017-09-02T07:32:22.318Z,44.80
2017-09-02T07:33:19.602Z,49.00
2017-09-02T07:34:16.869Z,45.90
2017-09-02T07:35:14.155Z,46.40
2017-09-02T07:36:11.430Z,48.90
2017-09-02T07:37:08.706Z,49.20
2017-09-02T07:38:05.983Z,45.40
2017-09-02T07:39:03.283Z,50.20
2017-09-02T07:40:00.939Z,50.70
2017-09-02T07:40:58.229Z,48.60
2017-09-02T07:41:55.505Z,46.10
2017-09-02T07:42:52.805Z,47.30
2017-09-02T07:43:50.111Z,44.50
2017-09-02T07:44:47.462Z,48.70
2017-09-02T07:45:44.738Z,49.80
2017-09-02T07:46:42.162Z,49.80
2017-09-02T07:47:39.421Z,53.20
2017-09-02T07:48:36.739Z,49.80
2017-09-02T07:49:34.022Z,51.50
2017-09-02T07:50:31.315Z,53.00
2017-09-02T07:51:28.645Z,51.20
2017-09-02T07:52:25.967Z,57.30
2017-09-02T07:53:23.257Z,57.20
2017-09-02T07:54:20.573Z,55.30
2017-09-02T07:55:17.849Z,53.50
2017-09-02T07:56:15.167Z,58.10
2017-09-02T07:57:12.457Z,61.90
2017-09-02T07:58:09.794Z,54.90
2017-09-02T07:59:07.083Z,65.20
2017-09-02T08:00:04.404Z,59.70
2017-09-02T08:01:01.696Z,58.50
2017-09-02T08:01:59.068Z,58.60
2017-09-02T08:02:58.443Z,66.60
2017-09-02T08:03:55.963Z,66.40
2017-09-02T08:04:53.310Z,65.80
2017-09-02T08:05:50.663Z,57.50
2017-09-02T08:06:48.048Z,62.90
2017-09-02T08:07:45.428Z,55.50
2017-09-02T08:08:42.788Z,61.90
2017-09-02T08:09:40.178Z,64.60
2017-09-02T08:10:38.520Z,66.50
2017-09-02T08:11:35.917Z,65.30
2017-09-02T08:12:33.222Z,66.60
2017-09-02T08:13:30.590Z,60.50
2017-09-02T08:14:27.834Z,71.00
2017-09-02T08:15:25.114Z,75.10
2017-09-02T08:16:24.463Z,62.70
2017-09-02T08:17:21.761Z,62.80
2017-09-02T08:18:19.030Z,63.50
2017-09-02T08:19:16.349Z,72.80
2017-09-02T08:20:13.599Z,68.20
2017-09-02T08:21:10.886Z,64.10
2017-09-02T08:22:08.186Z,65.60
2017-09-02T08:23:05.441Z,77.20
2017-09-02T08:24:02.758Z,63.60
2017-09-02T08:25:00.041Z,71.80
2017-09-02T08:25:57.278Z,73.00
2017-09-02T08:26:54.593Z,66.20
2017-09-02T08:27:51.879Z,73.20
2017-09-02T08:28:49.165Z,66.30
2017-09-02T08:29:46.433Z,70.80
2017-09-02T08:30:43.744Z,73.30
2017-09-02T08:31:40.990Z,75.30
2017-09-02T08:32:38.335Z,76.30
2017-09-02T08:33:35.623Z,71.30
2017-09-02T08:34:32.958Z,75.20
2017-09-02T08:35:30.290Z,80.80
2017-09-02T08:36:27.555Z,63.10
2017-09-02T08:37:24.826Z,69.80
2017-09-02T08:38:22.101Z,67.50
2017-09-02T08:39:19.347Z,68.80
2017-09-02T08:40:16.659Z,67.90
2017-09-02T08:41:13.900Z,73.60
2017-09-02T08:42:11.218Z,62.00
2017-09-02T08:43:08.477Z,75.60
2017-09-02T08:44:05.740Z,65.50
2017-09-02T08:45:02.994Z,76.50
2017-09-02T08:46:00.262Z,75.60
2017-09-02T08:46:57.503Z,63.50
2017-09-02T08:47:54.802Z,72.70
2017-09-02T08:48:52.079Z,75.30
2017-09-02T08:49:49.389Z,73.50
2017-09-02T08:50:46.629Z,68.60
2017-09-02T08:51:43.877Z,76.20
2017-09-02T08:52:41.121Z,77.40
2017-09-02T08:53:38.438Z,74.40
2017-09-02T08:54:35.707Z,80.80
2017-09-02T08:55:32.977Z,79.70
2017-09-02T08:56:30.221Z,60.60
2017-09-02T08:57:27.513Z,74.40
2017-09-02T08:58:24.753Z,71.30
2017-09-02T08:59:22.177Z,61.10
2017-09-02T09:00:19.593Z,63.50
2017-09-02T09:01:16.854Z,63.90
2017-09-02T09:02:14.177Z,75.50
2017-09-02T09:03:11.462Z,67.40
2017-09-02T09:04:08.701Z,66.60
2017-09-02T09:05:05.953Z,66.40
2017-09-02T09:06:03.262Z,63.30
2017-09-02T09:07:00.525Z,69.90
2017-09-02T09:07:57.799Z,62.20
2017-09-02T09:08:55.085Z,66.00
2017-09-02T09:09:52.310Z,63.10
2017-09-02T09:10:49.583Z,65.20
2017-09-02T09:11:46.806Z,59.50
2017-09-02T09:12:44.096Z,59.90
2017-09-02T09:13:41.409Z,59.30
2017-09-02T09:14:38.817Z,62.70
2017-09-02T09:15:36.098Z,64.60
2017-09-02T09:16:33.350Z,62.10
2017-09-02T09:17:30.616Z,67.50
2017-09-02T09:18:28.295Z,75.00
2017-09-02T09:19:25.530Z,65.90
2017-09-02T09:20:26.129Z,57.00
2017-09-02T09:21:23.390Z,54.80
2017-09-02T09:22:20.621Z,65.40
2017-09-02T09:23:17.913Z,63.40
2017-09-02T09:24:16.837Z,59.50
2017-09-02T09:25:14.126Z,52.70
2017-09-02T09:26:11.365Z,59.70
2017-09-02T09:27:08.679Z,50.70
2017-09-02T09:28:05.954Z,54.10
2017-09-02T09:29:03.268Z,55.50
2017-09-02T09:30:00.550Z,48.90
2017-09-02T09:30:57.859Z,53.50
2017-09-02T09:31:55.090Z,56.90
2017-09-02T09:32:52.412Z,59.00
2017-09-02T09:33:49.674Z,55.40
2017-09-02T09:34:46.942Z,59.30
2017-09-02T09:35:44.182Z,61.30
2017-09-02T09:36:41.441Z,43.50
2017-09-02T09:37:38.675Z,54.20
2017-09-02T09:38:36.005Z,48.70
2017-09-02T09:39:33.249Z,46.30
2017-09-02T09:40:30.522Z,50.00
2017-09-02T09:41:27.762Z,54.40
2017-09-02T09:42:25.042Z,52.20
2017-09-02T09:43:22.303Z,50.10
2017-09-02T09:44:19.598Z,54.60
2017-09-02T09:45:16.985Z,56.60
2017-09-02T09:46:14.274Z,51.20
2017-09-02T09:47:11.517Z,50.10
2017-09-02T09:48:08.782Z,47.10
2017-09-02T09:49:06.043Z,49.40
2017-09-02T09:50:03.330Z,49.20
2017-09-02T09:51:00.595Z,52.80
2017-09-02T09:51:57.872Z,52.60
2017-09-02T09:52:55.101Z,49.40
2017-09-02T09:53:52.390Z,48.70
2017-09-02T09:54:49.609Z,46.40
2017-09-02T09:55:46.878Z,53.20
2017-09-02T09:56:44.143Z,48.80
2017-09-02T09:57:41.442Z,43.10
2017-09-02T09:58:38.705Z,47.60
2017-09-02T09:59:36.056Z,48.20
2017-09-02T10:00:33.277Z,47.30
2017-09-02T10:01:30.535Z,45.80
2017-09-02T10:02:27.782Z,48.00
2017-09-02T10:03:25.053Z,50.80
2017-09-02T10:04:22.308Z,43.50
2017-09-02T10:05:19.561Z,40.00
2017-09-02T10:06:16.801Z,42.80
2017-09-02T10:07:14.062Z,47.00
2017-09-02T10:08:11.286Z,49.60
2017-09-02T10:09:08.585Z,47.40
2017-09-02T10:10:05.830Z,49.20
2017-09-02T10:11:03.093Z,41.60
2017-09-02T10:12:00.351Z,45.50
2017-09-02T10:12:57.623Z,49.40
2017-09-02T10:13:54.855Z,49.90
2017-09-02T10:14:52.158Z,42.70
2017-09-02T10:15:49.402Z,48.90
2017-09-02T10:16:46.662Z,41.90
2017-09-02T10:17:44.002Z,40.70
2017-09-02T10:18:41.271Z,39.50
2017-09-02T10:19:38.526Z,38.30
2017-09-02T10:20:35.797Z,45.80
2017-09-02T10:21:33.032Z,45.80
2017-09-02T10:22:30.288Z,38.30
2017-09-02T10:23:27.522Z,38.00
2017-09-02T10:24:24.785Z,39.80
2017-09-02T10:25:22.066Z,36.20
2017-09-02T10:26:19.357Z,39.40
2017-09-02T10:27:16.604Z,39.50
2017-09-02T10:28:13.877Z,38.80
2017-09-02T10:29:11.152Z,41.60
2017-09-02T10:30:08.437Z,41.80
2017-09-02T10:31:05.686Z,42.50
2017-09-02T10:32:02.945Z,39.90
2017-09-02T10:33:00.178Z,37.60
2017-09-02T10:33:57.441Z,42.20
2017-09-02T10:34:54.789Z,43.60
2017-09-02T10:35:52.098Z,40.40
2017-09-02T10:36:49.329Z,38.80
2017-09-02T10:37:46.574Z,39.60
2017-09-02T10:38:43.803Z,37.60
2017-09-02T10:39:41.070Z,40.20
2017-09-02T10:40:38.324Z,39.80
2017-09-02T10:41:35.602Z,39.50
2017-09-02T10:42:32.834Z,42.30
2017-09-02T10:43:30.098Z,44.30
2017-09-02T10:44:27.417Z,40.50
2017-09-02T10:45:24.706Z,45.20
2017-09-02T10:46:21.946Z,36.10
2017-09-02T10:47:19.206Z,39.10
2017-09-02T10:48:16.446Z,48.20
2017-09-02T10:49:13.722Z,42.00
2017-09-02T10:50:11.001Z,38.20
2017-09-02T10:51:08.257Z,42.40
2017-09-02T10:52:05.489Z,43.10
2017-09-02T10:53:02.746Z,41.60
2017-09-02T10:53:59.999Z,40.00
2017-09-02T10:54:57.285Z,40.30
2017-09-02T10:55:54.561Z,49.00
2017-09-02T10:56:51.832Z,43.60
2017-09-02T10:57:49.070Z,46.30
2017-09-02T10:58:46.332Z,41.20
2017-09-02T10:59:43.575Z,42.80
2017-09-02T11:00:40.854Z,42.80
2017-09-02T11:01:38.074Z,41.30
2017-09-02T11:02:35.334Z,35.80
2017-09-02T11:03:32.617Z,40.60
2017-09-02T11:04:29.886Z,40.30
2017-09-02T11:05:27.154Z,37.10
2017-09-02T11:06:24.462Z,42.90
2017-09-02T11:07:21.714Z,44.90
2017-09-02T11:08:18.985Z,48.00
2017-09-02T11:09:16.246Z,47.20
2017-09-02T11:10:13.527Z,40.70
2017-09-02T11:11:10.806Z,44.40
2017-09-02T11:12:08.073Z,39.90
2017-09-02T11:13:05.310Z,39.20
2017-09-02T11:14:02.609Z,42.00
2017-09-02T11:14:59.842Z,33.90
2017-09-02T11:15:57.141Z,33.20
2017-09-02T11:16:54.402Z,31.00
2017-09-02T11:17:51.653Z,30.60
2017-09-02T11:18:49.012Z,29.60
2017-09-02T11:19:46.330Z,28.60
2017-09-02T11:20:43.610Z,27.60
2017-09-02T11:21:40.974Z,13.10
2017-09-02T11:22:38.334Z,17.70
2017-09-02T11:23:35.827Z,14.00
2017-09-02T11:24:33.324Z,15.10
2017-09-02T11:25:30.675Z,15.80
2017-09-02T11:26:27.962Z,12.60
2017-09-02T11:27:25.226Z,13.40
2017-09-02T11:28:22.498Z,11.20
2017-09-02T11:29:19.781Z,12.10
2017-09-02T11:30:17.031Z,12.50
2017-09-02T11:31:14.353Z,10.40
2017-09-02T11:32:11.610Z,12.80
2017-09-02T11:33:08.870Z,11.00
2017-09-02T11:34:06.129Z,11.90
2017-09-02T11:35:03.460Z,14.10
2017-09-02T11:36:00.739Z,13.20
2017-09-02T11:36:58.043Z,14.10
2017-09-02T11:37:55.301Z,12.00
2017-09-02T11:38:52.579Z,14.90
2017-09-02T11:39:49.847Z,16.40
2017-09-02T11:40:47.145Z,13.40
2017-09-02T11:41:44.473Z,13.50
2017-09-02T11:42:41.730Z,14.90
2017-09-02T11:43:39.041Z,12.10
2017-09-02T11:44:36.445Z,15.30
2017-09-02T11:45:33.686Z,16.80
2017-09-02T11:46:30.978Z,17.20
2017-09-02T11:47:28.233Z,12.90
2017-09-02T11:48:25.489Z,14.40
2017-09-02T11:49:22.777Z,16.00
2017-09-02T11:50:20.042Z,15.20
2017-09-02T11:51:17.306Z,19.10
2017-09-02T11:52:14.578Z,16.80
2017-09-02T11:53:11.810Z,16.80
2017-09-02T11:54:09.209Z,14.60
2017-09-02T11:55:06.518Z,14.30
2017-09-02T11:56:03.789Z,18.20
2017-09-02T11:57:01.076Z,13.40
2017-09-02T11:57:58.366Z,13.00
2017-09-02T11:58:55.606Z,14.50
2017-09-02T11:59:52.881Z,16.60
2017-09-02T12:00:50.101Z,24.80
2017-09-02T12:01:47.735Z,13.30
2017-09-02T12:02:45.737Z,16.60
2017-09-02T12:03:43.336Z,16.20
2017-09-02T12:04:40.701Z,13.70
2017-09-02T12:05:38.687Z,13.50
2017-09-02T12:06:36.505Z,15.50
2017-09-02T12:07:33.850Z,15.60
2017-09-02T12:08:31.107Z,14.80
2017-09-02T12:09:28.406Z,15.20
2017-09-02T12:10:25.695Z,14.80
2017-09-02T12:11:22.977Z,14.10
2017-09-02T12:12:20.229Z,15.00
2017-09-02T12:13:17.493Z,14.30
2017-09-02T12:14:14.725Z,13.00
2017-09-02T12:15:12.014Z,15.10
2017-09-02T12:16:09.243Z,16.80
2017-09-02T12:17:06.571Z,16.10
2017-09-02T12:18:03.817Z,14.50
2017-09-02T12:19:01.066Z,16.20
2017-09-02T12:19:58.342Z,16.50
2017-09-02T12:20:55.638Z,12.60
2017-09-02T12:21:52.869Z,17.90
2017-09-02T12:22:50.226Z,14.40
2017-09-02T12:23:47.468Z,19.70
2017-09-02T12:24:44.742Z,16.50
2017-09-02T12:25:42.000Z,14.80
2017-09-02T12:26:39.274Z,19.90
2017-09-02T12:27:36.584Z,17.30
2017-09-02T12:28:33.903Z,15.40
2017-09-02T12:29:31.169Z,16.30